sensor_id;sensor_type;location;lat;lon;timestamp;P1;durP1;ratioP1;P2;durP2;ratioP2
64684;SDS011;51109;47.414;18.954;2023-11-21T00:00:31;23.10;;;13.07;;
64684;SDS011;51109;47.414;18.954;2023-11-21T00:02:57;26.75;;;12.95;;
64684;SDS011;51109;47.414;18.954;2023-11-21T00:05:23;17.95;;;11.63;;
64684;SDS011;51109;47.414;18.954;2023-11-21T00:07:49;22.73;;;11.98;;
64684;SDS011;51109;47.414;18.954;2023-11-21T00:10:14;18.73;;;10.25;;
64684;SDS011;51109;47.414;18.954;2023-11-21T00:12:41;19.58;;;10.80;;
64684;SDS011;51109;47.414;18.954;2023-11-21T00:15:07;14.38;;;9.65;;
64684;SDS011;51109;47.414;18.954;2023-11-21T00:17:37;12.10;;;8.95;;
64684;SDS011;51109;47.414;18.954;2023-11-21T00:20:04;12.15;;;8.40;;
64684;SDS011;51109;47.414;18.954;2023-11-21T00:22:32;19.50;;;9.75;;
64684;SDS011;51109;47.414;18.954;2023-11-21T00:25:01;18.85;;;9.57;;
64684;SDS011;51109;47.414;18.954;2023-11-21T00:27:29;22.10;;;10.43;;
64684;SDS011;51109;47.414;18.954;2023-11-21T00:29:55;17.75;;;9.73;;
64684;SDS011;51109;47.414;18.954;2023-11-21T00:32:21;20.75;;;12.18;;
64684;SDS011;51109;47.414;18.954;2023-11-21T00:34:47;19.20;;;12.15;;
64684;SDS011;51109;47.414;18.954;2023-11-21T00:37:13;19.75;;;11.25;;
64684;SDS011;51109;47.414;18.954;2023-11-21T00:39:40;17.55;;;10.70;;
64684;SDS011;51109;47.414;18.954;2023-11-21T00:42:05;19.75;;;12.18;;
64684;SDS011;51109;47.414;18.954;2023-11-21T00:44:31;20.88;;;11.73;;
64684;SDS011;51109;47.414;18.954;2023-11-21T00:46:59;26.90;;;12.80;;
64684;SDS011;51109;47.414;18.954;2023-11-21T00:49:25;22.33;;;12.50;;
64684;SDS011;51109;47.414;18.954;2023-11-21T00:51:51;28.20;;;12.95;;
64684;SDS011;51109;47.414;18.954;2023-11-21T00:54:17;21.45;;;13.70;;
64684;SDS011;51109;47.414;18.954;2023-11-21T00:56:43;22.58;;;12.93;;
64684;SDS011;51109;47.414;18.954;2023-11-21T00:59:08;20.92;;;12.75;;
64684;SDS011;51109;47.414;18.954;2023-11-21T01:01:35;22.80;;;12.18;;
64684;SDS011;51109;47.414;18.954;2023-11-21T01:04:03;19.23;;;12.30;;
64684;SDS011;51109;47.414;18.954;2023-11-21T01:06:29;24.85;;;12.18;;
64684;SDS011;51109;47.414;18.954;2023-11-21T01:08:55;22.65;;;11.98;;
64684;SDS011;51109;47.414;18.954;2023-11-21T01:11:21;20.50;;;11.90;;
64684;SDS011;51109;47.414;18.954;2023-11-21T01:13:46;23.33;;;12.98;;
64684;SDS011;51109;47.414;18.954;2023-11-21T01:16:12;22.33;;;11.70;;
64684;SDS011;51109;47.414;18.954;2023-11-21T01:18:38;22.73;;;11.35;;
64684;SDS011;51109;47.414;18.954;2023-11-21T01:21:04;19.85;;;10.90;;
64684;SDS011;51109;47.414;18.954;2023-11-21T01:23:30;16.98;;;11.65;;
64684;SDS011;51109;47.414;18.954;2023-11-21T01:25:56;20.48;;;10.70;;
64684;SDS011;51109;47.414;18.954;2023-11-21T01:28:22;17.83;;;10.38;;
64684;SDS011;51109;47.414;18.954;2023-11-21T01:30:49;18.35;;;10.75;;
64684;SDS011;51109;47.414;18.954;2023-11-21T01:33:15;20.17;;;10.93;;
64684;SDS011;51109;47.414;18.954;2023-11-21T01:35:41;16.40;;;9.30;;
64684;SDS011;51109;47.414;18.954;2023-11-21T01:38:07;16.13;;;9.13;;
64684;SDS011;51109;47.414;18.954;2023-11-21T01:40:34;13.77;;;8.77;;
64684;SDS011;51109;47.414;18.954;2023-11-21T01:43:00;13.15;;;7.65;;
64684;SDS011;51109;47.414;18.954;2023-11-21T01:45:28;15.88;;;8.63;;
64684;SDS011;51109;47.414;18.954;2023-11-21T01:47:56;13.15;;;7.43;;
64684;SDS011;51109;47.414;18.954;2023-11-21T01:50:23;13.73;;;8.10;;
64684;SDS011;51109;47.414;18.954;2023-11-21T01:52:50;14.55;;;8.07;;
64684;SDS011;51109;47.414;18.954;2023-11-21T01:55:17;15.85;;;7.97;;
64684;SDS011;51109;47.414;18.954;2023-11-21T01:57:44;17.75;;;8.05;;
64684;SDS011;51109;47.414;18.954;2023-11-21T02:05:42;16.35;;;7.88;;
64684;SDS011;51109;47.414;18.954;2023-11-21T02:08:07;16.55;;;8.43;;
64684;SDS011;51109;47.414;18.954;2023-11-21T02:10:34;16.38;;;8.02;;
64684;SDS011;51109;47.414;18.954;2023-11-21T02:13:02;18.00;;;8.55;;
64684;SDS011;51109;47.414;18.954;2023-11-21T02:15:28;16.20;;;8.05;;
64684;SDS011;51109;47.414;18.954;2023-11-21T02:17:54;17.95;;;8.50;;
64684;SDS011;51109;47.414;18.954;2023-11-21T02:20:23;13.18;;;8.30;;
64684;SDS011;51109;47.414;18.954;2023-11-21T02:22:50;13.90;;;7.68;;
64684;SDS011;51109;47.414;18.954;2023-11-21T02:25:23;12.73;;;7.60;;
64684;SDS011;51109;47.414;18.954;2023-11-21T02:27:50;13.10;;;7.28;;
64684;SDS011;51109;47.414;18.954;2023-11-21T02:30:16;12.98;;;7.53;;
64684;SDS011;51109;47.414;18.954;2023-11-21T02:32:42;13.73;;;7.47;;
64684;SDS011;51109;47.414;18.954;2023-11-21T02:35:08;17.92;;;8.07;;
64684;SDS011;51109;47.414;18.954;2023-11-21T02:37:34;12.70;;;7.75;;
64684;SDS011;51109;47.414;18.954;2023-11-21T02:40:03;17.13;;;7.97;;
64684;SDS011;51109;47.414;18.954;2023-11-21T02:42:31;17.92;;;8.73;;
64684;SDS011;51109;47.414;18.954;2023-11-21T02:44:57;17.25;;;7.97;;
64684;SDS011;51109;47.414;18.954;2023-11-21T02:47:23;16.77;;;8.30;;
64684;SDS011;51109;47.414;18.954;2023-11-21T02:49:49;14.32;;;7.65;;
64684;SDS011;51109;47.414;18.954;2023-11-21T02:52:17;11.35;;;6.97;;
64684;SDS011;51109;47.414;18.954;2023-11-21T02:54:44;11.20;;;6.63;;
64684;SDS011;51109;47.414;18.954;2023-11-21T02:57:10;12.45;;;7.13;;
64684;SDS011;51109;47.414;18.954;2023-11-21T02:59:36;18.08;;;7.15;;
64684;SDS011;51109;47.414;18.954;2023-11-21T03:02:02;10.32;;;6.45;;
64684;SDS011;51109;47.414;18.954;2023-11-21T03:04:28;13.35;;;6.40;;
64684;SDS011;51109;47.414;18.954;2023-11-21T03:06:54;11.35;;;6.32;;
64684;SDS011;51109;47.414;18.954;2023-11-21T03:09:20;11.57;;;7.10;;
64684;SDS011;51109;47.414;18.954;2023-11-21T03:11:45;10.00;;;6.55;;
64684;SDS011;51109;47.414;18.954;2023-11-21T03:14:11;11.70;;;6.47;;
64684;SDS011;51109;47.414;18.954;2023-11-21T03:16:37;10.65;;;6.65;;
64684;SDS011;51109;47.414;18.954;2023-11-21T03:19:03;14.93;;;7.15;;
64684;SDS011;51109;47.414;18.954;2023-11-21T03:21:30;14.73;;;7.05;;
64684;SDS011;51109;47.414;18.954;2023-11-21T03:23:56;14.60;;;6.55;;
64684;SDS011;51109;47.414;18.954;2023-11-21T03:26:22;16.80;;;7.50;;
64684;SDS011;51109;47.414;18.954;2023-11-21T03:28:48;13.75;;;6.70;;
64684;SDS011;51109;47.414;18.954;2023-11-21T03:31:14;14.13;;;6.78;;
64684;SDS011;51109;47.414;18.954;2023-11-21T03:33:42;11.23;;;5.60;;
64684;SDS011;51109;47.414;18.954;2023-11-21T03:36:08;10.90;;;5.78;;
64684;SDS011;51109;47.414;18.954;2023-11-21T03:38:34;10.38;;;5.47;;
64684;SDS011;51109;47.414;18.954;2023-11-21T03:41:00;7.10;;;4.65;;
64684;SDS011;51109;47.414;18.954;2023-11-21T03:43:26;11.70;;;4.65;;
64684;SDS011;51109;47.414;18.954;2023-11-21T03:45:52;13.27;;;4.60;;
64684;SDS011;51109;47.414;18.954;2023-11-21T03:48:17;12.25;;;5.22;;
64684;SDS011;51109;47.414;18.954;2023-11-21T03:50:43;10.07;;;5.88;;
64684;SDS011;51109;47.414;18.954;2023-11-21T03:53:09;9.45;;;5.25;;
64684;SDS011;51109;47.414;18.954;2023-11-21T03:55:35;11.68;;;5.47;;
64684;SDS011;51109;47.414;18.954;2023-11-21T03:58:01;9.20;;;5.30;;
64684;SDS011;51109;47.414;18.954;2023-11-21T04:00:27;10.38;;;4.95;;
64684;SDS011;51109;47.414;18.954;2023-11-21T04:02:53;12.10;;;5.05;;
64684;SDS011;51109;47.414;18.954;2023-11-21T04:05:20;14.10;;;5.38;;
64684;SDS011;51109;47.414;18.954;2023-11-21T04:07:48;13.23;;;5.55;;
64684;SDS011;51109;47.414;18.954;2023-11-21T04:10:15;10.88;;;5.85;;
64684;SDS011;51109;47.414;18.954;2023-11-21T04:12:41;11.48;;;5.60;;
64684;SDS011;51109;47.414;18.954;2023-11-21T04:15:08;12.15;;;5.88;;
64684;SDS011;51109;47.414;18.954;2023-11-21T04:17:34;11.45;;;6.18;;
64684;SDS011;51109;47.414;18.954;2023-11-21T04:20:02;14.50;;;6.60;;
64684;SDS011;51109;47.414;18.954;2023-11-21T04:22:33;12.25;;;6.22;;
64684;SDS011;51109;47.414;18.954;2023-11-21T04:25:01;14.20;;;6.65;;
64684;SDS011;51109;47.414;18.954;2023-11-21T04:27:27;14.20;;;7.47;;
64684;SDS011;51109;47.414;18.954;2023-11-21T04:29:53;11.15;;;6.22;;
64684;SDS011;51109;47.414;18.954;2023-11-21T04:32:19;13.82;;;7.05;;
64684;SDS011;51109;47.414;18.954;2023-11-21T04:34:44;16.05;;;7.55;;
64684;SDS011;51109;47.414;18.954;2023-11-21T04:37:10;14.93;;;6.72;;
64684;SDS011;51109;47.414;18.954;2023-11-21T04:39:37;13.38;;;6.38;;
64684;SDS011;51109;47.414;18.954;2023-11-21T04:42:03;11.55;;;5.07;;
64684;SDS011;51109;47.414;18.954;2023-11-21T04:44:29;9.88;;;4.70;;
64684;SDS011;51109;47.414;18.954;2023-11-21T04:46:55;9.70;;;5.30;;
64684;SDS011;51109;47.414;18.954;2023-11-21T04:49:21;9.43;;;4.93;;
64684;SDS011;51109;47.414;18.954;2023-11-21T04:51:47;9.32;;;5.13;;
64684;SDS011;51109;47.414;18.954;2023-11-21T04:54:13;11.02;;;4.40;;
64684;SDS011;51109;47.414;18.954;2023-11-21T04:56:38;8.32;;;4.78;;
64684;SDS011;51109;47.414;18.954;2023-11-21T04:59:04;13.15;;;4.88;;
64684;SDS011;51109;47.414;18.954;2023-11-21T05:01:30;8.93;;;4.60;;
64684;SDS011;51109;47.414;18.954;2023-11-21T05:03:56;8.68;;;4.05;;
64684;SDS011;51109;47.414;18.954;2023-11-21T05:06:22;9.18;;;4.20;;
64684;SDS011;51109;47.414;18.954;2023-11-21T05:08:49;6.68;;;3.90;;
64684;SDS011;51109;47.414;18.954;2023-11-21T05:11:24;9.88;;;4.00;;
64684;SDS011;51109;47.414;18.954;2023-11-21T05:13:51;10.45;;;4.47;;
64684;SDS011;51109;47.414;18.954;2023-11-21T05:16:17;9.55;;;4.40;;
64684;SDS011;51109;47.414;18.954;2023-11-21T05:18:43;11.07;;;3.53;;
64684;SDS011;51109;47.414;18.954;2023-11-21T05:21:09;6.95;;;3.17;;
64684;SDS011;51109;47.414;18.954;2023-11-21T05:23:35;6.32;;;3.55;;
64684;SDS011;51109;47.414;18.954;2023-11-21T05:26:03;6.95;;;3.40;;
64684;SDS011;51109;47.414;18.954;2023-11-21T05:28:29;7.53;;;3.75;;
64684;SDS011;51109;47.414;18.954;2023-11-21T05:30:54;12.50;;;4.43;;
64684;SDS011;51109;47.414;18.954;2023-11-21T05:33:21;8.38;;;4.00;;
64684;SDS011;51109;47.414;18.954;2023-11-21T05:35:46;9.48;;;3.78;;
64684;SDS011;51109;47.414;18.954;2023-11-21T05:38:14;7.80;;;3.67;;
64684;SDS011;51109;47.414;18.954;2023-11-21T05:40:40;5.72;;;3.60;;
64684;SDS011;51109;47.414;18.954;2023-11-21T05:43:06;10.18;;;5.32;;
64684;SDS011;51109;47.414;18.954;2023-11-21T05:45:32;9.70;;;4.10;;
64684;SDS011;51109;47.414;18.954;2023-11-21T05:47:58;10.73;;;4.30;;
64684;SDS011;51109;47.414;18.954;2023-11-21T05:50:24;6.55;;;3.55;;
64684;SDS011;51109;47.414;18.954;2023-11-21T05:52:50;5.57;;;3.88;;
64684;SDS011;51109;47.414;18.954;2023-11-21T05:55:18;7.88;;;3.42;;
64684;SDS011;51109;47.414;18.954;2023-11-21T05:57:46;10.30;;;3.92;;
64684;SDS011;51109;47.414;18.954;2023-11-21T06:00:12;10.30;;;4.00;;
64684;SDS011;51109;47.414;18.954;2023-11-21T06:02:40;14.02;;;5.88;;
64684;SDS011;51109;47.414;18.954;2023-11-21T06:05:06;23.13;;;11.50;;
64684;SDS011;51109;47.414;18.954;2023-11-21T06:07:33;21.00;;;9.77;;
64684;SDS011;51109;47.414;18.954;2023-11-21T06:10:03;16.83;;;8.60;;
64684;SDS011;51109;47.414;18.954;2023-11-21T06:12:35;11.95;;;6.82;;
64684;SDS011;51109;47.414;18.954;2023-11-21T06:15:02;13.40;;;7.68;;
64684;SDS011;51109;47.414;18.954;2023-11-21T06:17:34;15.98;;;8.13;;
64684;SDS011;51109;47.414;18.954;2023-11-21T06:20:05;15.05;;;8.77;;
64684;SDS011;51109;47.414;18.954;2023-11-21T06:22:38;14.77;;;8.43;;
64684;SDS011;51109;47.414;18.954;2023-11-21T06:25:05;24.40;;;10.18;;
64684;SDS011;51109;47.414;18.954;2023-11-21T06:27:32;19.58;;;11.43;;
64684;SDS011;51109;47.414;18.954;2023-11-21T06:29:59;21.77;;;12.07;;
64684;SDS011;51109;47.414;18.954;2023-11-21T06:32:25;25.35;;;13.02;;
64684;SDS011;51109;47.414;18.954;2023-11-21T06:34:51;31.13;;;11.85;;
64684;SDS011;51109;47.414;18.954;2023-11-21T06:37:19;17.77;;;11.48;;
64684;SDS011;51109;47.414;18.954;2023-11-21T06:39:48;22.25;;;11.13;;
64684;SDS011;51109;47.414;18.954;2023-11-21T06:42:17;20.63;;;10.43;;
64684;SDS011;51109;47.414;18.954;2023-11-21T06:44:46;19.25;;;9.77;;
64684;SDS011;51109;47.414;18.954;2023-11-21T06:47:13;26.00;;;9.05;;
64684;SDS011;51109;47.414;18.954;2023-11-21T06:49:40;13.85;;;8.80;;
64684;SDS011;51109;47.414;18.954;2023-11-21T06:52:08;14.68;;;7.90;;
64684;SDS011;51109;47.414;18.954;2023-11-21T06:54:34;15.40;;;7.95;;
64684;SDS011;51109;47.414;18.954;2023-11-21T06:57:00;15.23;;;8.68;;
64684;SDS011;51109;47.414;18.954;2023-11-21T06:59:31;21.23;;;8.77;;
64684;SDS011;51109;47.414;18.954;2023-11-21T07:01:57;17.80;;;7.50;;
64684;SDS011;51109;47.414;18.954;2023-11-21T07:04:23;10.90;;;6.60;;
64684;SDS011;51109;47.414;18.954;2023-11-21T07:06:51;14.98;;;7.97;;
64684;SDS011;51109;47.414;18.954;2023-11-21T07:09:18;10.57;;;6.43;;
64684;SDS011;51109;47.414;18.954;2023-11-21T07:11:50;13.13;;;7.57;;
64684;SDS011;51109;47.414;18.954;2023-11-21T07:14:17;12.88;;;7.70;;
64684;SDS011;51109;47.414;18.954;2023-11-21T07:16:44;12.55;;;7.32;;
64684;SDS011;51109;47.414;18.954;2023-11-21T07:19:10;11.05;;;6.18;;
64684;SDS011;51109;47.414;18.954;2023-11-21T07:21:37;10.27;;;6.28;;
64684;SDS011;51109;47.414;18.954;2023-11-21T07:24:04;12.52;;;5.97;;
64684;SDS011;51109;47.414;18.954;2023-11-21T07:26:31;13.40;;;5.82;;
64684;SDS011;51109;47.414;18.954;2023-11-21T07:29:02;15.50;;;5.97;;
64684;SDS011;51109;47.414;18.954;2023-11-21T07:31:28;15.60;;;5.70;;
64684;SDS011;51109;47.414;18.954;2023-11-21T07:33:55;10.38;;;4.90;;
64684;SDS011;51109;47.414;18.954;2023-11-21T07:36:24;9.25;;;4.55;;
64684;SDS011;51109;47.414;18.954;2023-11-21T07:38:50;13.02;;;5.22;;
64684;SDS011;51109;47.414;18.954;2023-11-21T07:41:17;15.40;;;6.25;;
64684;SDS011;51109;47.414;18.954;2023-11-21T07:43:43;8.02;;;4.15;;
64684;SDS011;51109;47.414;18.954;2023-11-21T07:46:10;12.95;;;4.82;;
64684;SDS011;51109;47.414;18.954;2023-11-21T07:48:38;8.60;;;3.90;;
64684;SDS011;51109;47.414;18.954;2023-11-21T07:51:04;9.35;;;4.10;;
64684;SDS011;51109;47.414;18.954;2023-11-21T07:53:32;9.55;;;3.92;;
64684;SDS011;51109;47.414;18.954;2023-11-21T07:56:07;7.82;;;4.25;;
64684;SDS011;51109;47.414;18.954;2023-11-21T07:58:37;10.32;;;4.20;;
64684;SDS011;51109;47.414;18.954;2023-11-21T08:01:03;13.27;;;4.95;;
64684;SDS011;51109;47.414;18.954;2023-11-21T08:03:29;11.68;;;5.32;;
64684;SDS011;51109;47.414;18.954;2023-11-21T08:05:59;12.13;;;5.60;;
64684;SDS011;51109;47.414;18.954;2023-11-21T08:08:25;13.15;;;5.85;;
64684;SDS011;51109;47.414;18.954;2023-11-21T08:10:52;9.02;;;5.43;;
64684;SDS011;51109;47.414;18.954;2023-11-21T08:13:24;15.18;;;6.15;;
64684;SDS011;51109;47.414;18.954;2023-11-21T08:15:55;9.95;;;5.50;;
64684;SDS011;51109;47.414;18.954;2023-11-21T08:18:22;8.65;;;5.95;;
64684;SDS011;51109;47.414;18.954;2023-11-21T08:20:48;14.55;;;5.78;;
64684;SDS011;51109;47.414;18.954;2023-11-21T08:23:14;11.07;;;5.15;;
64684;SDS011;51109;47.414;18.954;2023-11-21T08:25:41;14.98;;;5.05;;
64684;SDS011;51109;47.414;18.954;2023-11-21T08:28:10;12.80;;;5.43;;
64684;SDS011;51109;47.414;18.954;2023-11-21T08:30:37;8.27;;;5.40;;
64684;SDS011;51109;47.414;18.954;2023-11-21T08:33:03;9.90;;;5.35;;
64684;SDS011;51109;47.414;18.954;2023-11-21T08:35:29;10.57;;;6.00;;
64684;SDS011;51109;47.414;18.954;2023-11-21T08:37:56;10.85;;;5.88;;
64684;SDS011;51109;47.414;18.954;2023-11-21T08:40:22;13.02;;;6.00;;
64684;SDS011;51109;47.414;18.954;2023-11-21T08:42:48;8.85;;;5.28;;
64684;SDS011;51109;47.414;18.954;2023-11-21T08:45:17;11.77;;;5.82;;
64684;SDS011;51109;47.414;18.954;2023-11-21T08:47:43;11.77;;;5.90;;
64684;SDS011;51109;47.414;18.954;2023-11-21T08:50:09;12.40;;;6.03;;
64684;SDS011;51109;47.414;18.954;2023-11-21T08:52:39;12.27;;;6.68;;
64684;SDS011;51109;47.414;18.954;2023-11-21T08:55:06;14.57;;;7.28;;
64684;SDS011;51109;47.414;18.954;2023-11-21T08:57:34;11.05;;;7.80;;
64684;SDS011;51109;47.414;18.954;2023-11-21T09:00:00;19.40;;;10.93;;
64684;SDS011;51109;47.414;18.954;2023-11-21T09:02:28;16.45;;;9.18;;
64684;SDS011;51109;47.414;18.954;2023-11-21T09:04:54;12.50;;;7.95;;
64684;SDS011;51109;47.414;18.954;2023-11-21T09:07:20;15.18;;;8.45;;
64684;SDS011;51109;47.414;18.954;2023-11-21T09:09:48;12.85;;;7.55;;
64684;SDS011;51109;47.414;18.954;2023-11-21T09:12:14;16.98;;;6.47;;
64684;SDS011;51109;47.414;18.954;2023-11-21T09:14:41;11.07;;;7.20;;
64684;SDS011;51109;47.414;18.954;2023-11-21T09:17:09;12.27;;;6.80;;
64684;SDS011;51109;47.414;18.954;2023-11-21T09:19:38;15.38;;;7.43;;
64684;SDS011;51109;47.414;18.954;2023-11-21T09:22:04;12.30;;;6.45;;
64684;SDS011;51109;47.414;18.954;2023-11-21T09:24:33;15.90;;;7.63;;
64684;SDS011;51109;47.414;18.954;2023-11-21T09:26:59;14.00;;;7.70;;
64684;SDS011;51109;47.414;18.954;2023-11-21T09:29:28;14.25;;;7.03;;
64684;SDS011;51109;47.414;18.954;2023-11-21T09:31:54;15.38;;;7.55;;
64684;SDS011;51109;47.414;18.954;2023-11-21T09:34:21;12.52;;;6.97;;
64684;SDS011;51109;47.414;18.954;2023-11-21T09:36:47;11.43;;;7.00;;
64684;SDS011;51109;47.414;18.954;2023-11-21T09:39:13;15.57;;;6.93;;
64684;SDS011;51109;47.414;18.954;2023-11-21T09:41:49;10.25;;;6.35;;
64684;SDS011;51109;47.414;18.954;2023-11-21T09:44:20;13.80;;;7.15;;
64684;SDS011;51109;47.414;18.954;2023-11-21T09:46:56;15.27;;;7.32;;
64684;SDS011;51109;47.414;18.954;2023-11-21T09:49:25;16.13;;;6.03;;
64684;SDS011;51109;47.414;18.954;2023-11-21T09:51:53;15.68;;;5.90;;
64684;SDS011;51109;47.414;18.954;2023-11-21T09:54:23;13.18;;;7.50;;
64684;SDS011;51109;47.414;18.954;2023-11-21T09:56:50;18.13;;;9.30;;
64684;SDS011;51109;47.414;18.954;2023-11-21T09:59:16;33.13;;;14.55;;
64684;SDS011;51109;47.414;18.954;2023-11-21T10:01:42;58.03;;;19.75;;
64684;SDS011;51109;47.414;18.954;2023-11-21T10:04:08;52.80;;;22.60;;
64684;SDS011;51109;47.414;18.954;2023-11-21T10:06:38;65.50;;;25.52;;
64684;SDS011;51109;47.414;18.954;2023-11-21T10:09:08;39.28;;;17.42;;
64684;SDS011;51109;47.414;18.954;2023-11-21T10:11:40;30.50;;;13.43;;
64684;SDS011;51109;47.414;18.954;2023-11-21T10:14:08;28.45;;;12.15;;
64684;SDS011;51109;47.414;18.954;2023-11-21T10:16:37;29.85;;;13.30;;
64684;SDS011;51109;47.414;18.954;2023-11-21T10:19:04;22.30;;;8.88;;
64684;SDS011;51109;47.414;18.954;2023-11-21T10:21:34;19.25;;;9.00;;
64684;SDS011;51109;47.414;18.954;2023-11-21T10:24:00;25.35;;;9.25;;
64684;SDS011;51109;47.414;18.954;2023-11-21T10:26:27;28.77;;;12.75;;
64684;SDS011;51109;47.414;18.954;2023-11-21T10:28:57;39.38;;;15.40;;
64684;SDS011;51109;47.414;18.954;2023-11-21T10:31:29;34.35;;;14.98;;
64684;SDS011;51109;47.414;18.954;2023-11-21T10:34:14;24.33;;;11.70;;
64684;SDS011;51109;47.414;18.954;2023-11-21T10:36:41;20.35;;;10.13;;
64684;SDS011;51109;47.414;18.954;2023-11-21T10:39:07;19.55;;;8.45;;
64684;SDS011;51109;47.414;18.954;2023-11-21T10:41:35;15.80;;;8.38;;
64684;SDS011;51109;47.414;18.954;2023-11-21T10:44:01;15.13;;;7.70;;
64684;SDS011;51109;47.414;18.954;2023-11-21T10:46:32;14.43;;;7.82;;
64684;SDS011;51109;47.414;18.954;2023-11-21T10:48:59;17.33;;;8.40;;
64684;SDS011;51109;47.414;18.954;2023-11-21T10:51:25;18.35;;;9.52;;
64684;SDS011;51109;47.414;18.954;2023-11-21T10:53:52;17.88;;;9.18;;
64684;SDS011;51109;47.414;18.954;2023-11-21T10:56:18;19.05;;;10.10;;
64684;SDS011;51109;47.414;18.954;2023-11-21T10:58:48;24.65;;;10.98;;
64684;SDS011;51109;47.414;18.954;2023-11-21T11:01:15;25.88;;;13.93;;
64684;SDS011;51109;47.414;18.954;2023-11-21T11:03:43;45.92;;;22.52;;
64684;SDS011;51109;47.414;18.954;2023-11-21T11:06:10;45.88;;;25.88;;
64684;SDS011;51109;47.414;18.954;2023-11-21T11:08:37;39.38;;;22.17;;
64684;SDS011;51109;47.414;18.954;2023-11-21T11:11:07;40.88;;;21.90;;
64684;SDS011;51109;47.414;18.954;2023-11-21T11:13:35;31.35;;;18.35;;
64684;SDS011;51109;47.414;18.954;2023-11-21T11:16:03;29.90;;;17.25;;
64684;SDS011;51109;47.414;18.954;2023-11-21T11:18:32;29.40;;;17.20;;
64684;SDS011;51109;47.414;18.954;2023-11-21T11:21:01;29.73;;;16.30;;
64684;SDS011;51109;47.414;18.954;2023-11-21T11:35:17;27.52;;;15.75;;
64684;SDS011;51109;47.414;18.954;2023-11-21T11:37:51;25.92;;;15.43;;
64684;SDS011;51109;47.414;18.954;2023-11-21T11:40:17;33.97;;;17.88;;
64684;SDS011;51109;47.414;18.954;2023-11-21T11:42:57;25.98;;;16.38;;
64684;SDS011;51109;47.414;18.954;2023-11-21T11:45:34;34.08;;;16.15;;
64684;SDS011;51109;47.414;18.954;2023-11-21T11:48:01;25.75;;;16.55;;
64684;SDS011;51109;47.414;18.954;2023-11-21T11:50:29;31.73;;;15.85;;
64684;SDS011;51109;47.414;18.954;2023-11-21T11:52:55;31.52;;;15.48;;
64684;SDS011;51109;47.414;18.954;2023-11-21T11:55:40;29.35;;;16.17;;
64684;SDS011;51109;47.414;18.954;2023-11-21T11:58:07;28.30;;;17.13;;
64684;SDS011;51109;47.414;18.954;2023-11-21T12:00:33;32.15;;;18.75;;
64684;SDS011;51109;47.414;18.954;2023-11-21T12:03:03;33.25;;;18.92;;
64684;SDS011;51109;47.414;18.954;2023-11-21T12:05:34;34.50;;;21.20;;
64684;SDS011;51109;47.414;18.954;2023-11-21T12:08:09;35.17;;;19.40;;
64684;SDS011;51109;47.414;18.954;2023-11-21T12:10:37;39.47;;;22.65;;
64684;SDS011;51109;47.414;18.954;2023-11-21T12:13:10;42.20;;;24.02;;
64684;SDS011;51109;47.414;18.954;2023-11-21T12:15:40;45.00;;;21.65;;
64684;SDS011;51109;47.414;18.954;2023-11-21T12:18:06;38.70;;;19.65;;
64684;SDS011;51109;47.414;18.954;2023-11-21T12:20:32;35.35;;;18.83;;
64684;SDS011;51109;47.414;18.954;2023-11-21T12:23:04;31.23;;;19.02;;
64684;SDS011;51109;47.414;18.954;2023-11-21T12:25:31;32.03;;;17.02;;
64684;SDS011;51109;47.414;18.954;2023-11-21T12:27:58;26.05;;;16.48;;
64684;SDS011;51109;47.414;18.954;2023-11-21T12:30:27;29.30;;;17.05;;
64684;SDS011;51109;47.414;18.954;2023-11-21T12:32:56;29.17;;;17.90;;
64684;SDS011;51109;47.414;18.954;2023-11-21T12:35:30;28.38;;;17.23;;
64684;SDS011;51109;47.414;18.954;2023-11-21T12:37:59;30.20;;;17.23;;
64684;SDS011;51109;47.414;18.954;2023-11-21T12:40:28;27.80;;;15.48;;
64684;SDS011;51109;47.414;18.954;2023-11-21T12:42:55;27.38;;;15.25;;
64684;SDS011;51109;47.414;18.954;2023-11-21T12:45:23;31.35;;;16.05;;
64684;SDS011;51109;47.414;18.954;2023-11-21T12:47:52;27.35;;;15.05;;
64684;SDS011;51109;47.414;18.954;2023-11-21T12:50:32;30.73;;;17.45;;
64684;SDS011;51109;47.414;18.954;2023-11-21T12:53:09;24.67;;;15.80;;
64684;SDS011;51109;47.414;18.954;2023-11-21T12:55:43;27.73;;;13.73;;
64684;SDS011;51109;47.414;18.954;2023-11-21T13:00:47;12.48;;;7.30;;
64684;SDS011;51109;47.414;18.954;2023-11-21T13:03:14;14.60;;;6.88;;
64684;SDS011;51109;47.414;18.954;2023-11-21T13:05:45;14.43;;;7.05;;
64684;SDS011;51109;47.414;18.954;2023-11-21T13:08:16;18.38;;;6.88;;
64684;SDS011;51109;47.414;18.954;2023-11-21T13:10:46;12.88;;;6.15;;
64684;SDS011;51109;47.414;18.954;2023-11-21T13:13:15;12.32;;;6.07;;
64684;SDS011;51109;47.414;18.954;2023-11-21T13:15:47;9.93;;;5.82;;
64684;SDS011;51109;47.414;18.954;2023-11-21T13:18:17;14.35;;;5.95;;
64684;SDS011;51109;47.414;18.954;2023-11-21T13:20:44;11.98;;;5.35;;
64684;SDS011;51109;47.414;18.954;2023-11-21T13:23:11;10.35;;;5.05;;
64684;SDS011;51109;47.414;18.954;2023-11-21T13:25:41;11.30;;;6.07;;
64684;SDS011;51109;47.414;18.954;2023-11-21T13:28:11;15.85;;;6.25;;
64684;SDS011;51109;47.414;18.954;2023-11-21T13:30:47;9.75;;;6.75;;
64684;SDS011;51109;47.414;18.954;2023-11-21T13:33:13;15.25;;;6.53;;
64684;SDS011;51109;47.414;18.954;2023-11-21T13:35:52;16.00;;;7.10;;
64684;SDS011;51109;47.414;18.954;2023-11-21T13:38:18;15.35;;;7.93;;
64684;SDS011;51109;47.414;18.954;2023-11-21T13:43:15;17.38;;;9.68;;
64684;SDS011;51109;47.414;18.954;2023-11-21T13:45:44;18.42;;;8.77;;
64684;SDS011;51109;47.414;18.954;2023-11-21T13:48:11;19.50;;;10.82;;
64684;SDS011;51109;47.414;18.954;2023-11-21T13:50:48;23.48;;;9.50;;
64684;SDS011;51109;47.414;18.954;2023-11-21T13:53:20;20.27;;;9.00;;
64684;SDS011;51109;47.414;18.954;2023-11-21T13:55:50;16.98;;;9.20;;
64684;SDS011;51109;47.414;18.954;2023-11-21T13:58:20;17.60;;;9.43;;
64684;SDS011;51109;47.414;18.954;2023-11-21T14:01:05;17.38;;;9.95;;
64684;SDS011;51109;47.414;18.954;2023-11-21T14:03:31;14.10;;;8.45;;
64684;SDS011;51109;47.414;18.954;2023-11-21T14:06:04;15.85;;;7.97;;
64684;SDS011;51109;47.414;18.954;2023-11-21T14:08:40;17.90;;;8.07;;
64684;SDS011;51109;47.414;18.954;2023-11-21T14:11:07;15.50;;;8.10;;
64684;SDS011;51109;47.414;18.954;2023-11-21T14:13:33;16.23;;;8.73;;
64684;SDS011;51109;47.414;18.954;2023-11-21T14:15:59;16.13;;;8.30;;
64684;SDS011;51109;47.414;18.954;2023-11-21T14:18:26;19.83;;;9.35;;
64684;SDS011;51109;47.414;18.954;2023-11-21T14:20:59;14.80;;;7.45;;
64684;SDS011;51109;47.414;18.954;2023-11-21T14:23:25;12.50;;;7.47;;
64684;SDS011;51109;47.414;18.954;2023-11-21T14:25:51;21.65;;;7.50;;
64684;SDS011;51109;47.414;18.954;2023-11-21T14:28:17;19.52;;;11.48;;
64684;SDS011;51109;47.414;18.954;2023-11-21T14:30:44;14.65;;;9.32;;
64684;SDS011;51109;47.414;18.954;2023-11-21T14:33:13;14.15;;;7.53;;
64684;SDS011;51109;47.414;18.954;2023-11-21T14:35:42;11.60;;;6.68;;
64684;SDS011;51109;47.414;18.954;2023-11-21T14:38:08;13.88;;;5.95;;
64684;SDS011;51109;47.414;18.954;2023-11-21T14:40:35;12.23;;;6.13;;
64684;SDS011;51109;47.414;18.954;2023-11-21T14:43:02;11.82;;;5.82;;